sensor_id;sensor_type;location;lat;lon;timestamp;noise_LAeq;noise_LA_min;noise_LA_max;noise_LA01;noise_LA95
66589;Laerm;53447;49.272;11.070;2023-07-13T00:01:57;39.52;35.41;42.49;;
66589;Laerm;53447;49.272;11.070;2023-07-13T00:04:23;39.49;35.82;41.74;;
66589;Laerm;53447;49.272;11.070;2023-07-13T00:06:50;39.63;36.52;41.84;;
66589;Laerm;53447;49.272;11.070;2023-07-13T00:09:15;39.65;36.38;43.12;;
66589;Laerm;53447;49.272;11.070;2023-07-13T00:11:41;41.15;37.02;44.41;;
66589;Laerm;53447;49.272;11.070;2023-07-13T00:14:07;41.66;37.73;49.44;;
66589;Laerm;53447;49.272;11.070;2023-07-13T00:16:36;40.98;37.58;43.92;;
66589;Laerm;53447;49.272;11.070;2023-07-13T00:19:02;40.03;36.55;42.95;;
66589;Laerm;53447;49.272;11.070;2023-07-13T00:21:27;40.46;36.71;43.01;;
66589;Laerm;53447;49.272;11.070;2023-07-13T00:23:52;39.76;36.38;42.04;;
66589;Laerm;53447;49.272;11.070;2023-07-13T00:26:18;40.87;36.71;43.86;;
66589;Laerm;53447;49.272;11.070;2023-07-13T00:28:43;39.48;35.82;41.89;;
66589;Laerm;53447;49.272;11.070;2023-07-13T00:31:09;40.09;36.38;42.49;;
66589;Laerm;53447;49.272;11.070;2023-07-13T00:33:35;41.50;37.84;44.90;;
66589;Laerm;53447;49.272;11.070;2023-07-13T00:36:00;39.86;36.87;43.57;;
66589;Laerm;53447;49.272;11.070;2023-07-13T00:38:26;39.65;36.71;41.74;;
66589;Laerm;53447;49.272;11.070;2023-07-13T00:40:51;39.66;36.71;41.89;;
66589;Laerm;53447;49.272;11.070;2023-07-13T00:43:17;41.25;37.10;46.36;;
66589;Laerm;53447;49.272;11.070;2023-07-13T00:48:09;40.39;37.17;42.97;;
66589;Laerm;53447;49.272;11.070;2023-07-13T00:50:35;41.36;37.02;48.15;;
66589;Laerm;53447;49.272;11.070;2023-07-13T00:53:00;40.72;36.02;44.83;;
66589;Laerm;53447;49.272;11.070;2023-07-13T00:55:25;39.77;36.38;41.64;;
66589;Laerm;53447;49.272;11.070;2023-07-13T00:57:51;40.60;36.71;45.21;;
66589;Laerm;53447;49.272;11.070;2023-07-13T01:00:16;41.37;36.20;50.94;;
66589;Laerm;53447;49.272;11.070;2023-07-13T01:02:43;42.45;38.93;55.05;;
66589;Laerm;53447;49.272;11.070;2023-07-13T01:05:10;50.24;37.84;69.62;;
66589;Laerm;53447;49.272;11.070;2023-07-13T01:07:35;41.65;37.71;47.40;;
66589;Laerm;53447;49.272;11.070;2023-07-13T01:10:01;40.35;37.31;43.73;;
66589;Laerm;53447;49.272;11.070;2023-07-13T01:12:27;41.51;37.96;44.49;;
66589;Laerm;53447;49.272;11.070;2023-07-13T01:14:58;40.14;36.55;43.57;;
66589;Laerm;53447;49.272;11.070;2023-07-13T01:17:25;41.22;37.17;47.13;;
66589;Laerm;53447;49.272;11.070;2023-07-13T01:19:51;40.98;37.02;45.26;;
66589;Laerm;53447;49.272;11.070;2023-07-13T01:22:17;41.07;37.58;43.86;;
66589;Laerm;53447;49.272;11.070;2023-07-13T01:24:43;42.00;37.45;46.07;;
66589;Laerm;53447;49.272;11.070;2023-07-13T01:27:10;39.89;36.02;54.17;;
66589;Laerm;53447;49.272;11.070;2023-07-13T01:29:36;40.83;35.62;49.62;;
66589;Laerm;53447;49.272;11.070;2023-07-13T01:32:07;41.39;37.45;50.00;;
66589;Laerm;53447;49.272;11.070;2023-07-13T01:34:33;40.34;37.45;42.36;;
66589;Laerm;53447;49.272;11.070;2023-07-13T01:36:58;40.79;37.02;43.92;;
66589;Laerm;53447;49.272;11.070;2023-07-13T01:39:23;41.66;37.45;45.86;;
66589;Laerm;53447;49.272;11.070;2023-07-13T01:41:49;40.24;36.55;42.18;;
66589;Laerm;53447;49.272;11.070;2023-07-13T01:44:14;40.10;36.87;42.40;;
66589;Laerm;53447;49.272;11.070;2023-07-13T01:46:39;41.42;37.02;44.55;;
66589;Laerm;53447;49.272;11.070;2023-07-13T01:49:05;39.85;37.02;42.85;;
66589;Laerm;53447;49.272;11.070;2023-07-13T01:51:30;41.66;38.07;51.40;;
66589;Laerm;53447;49.272;11.070;2023-07-13T01:53:55;39.88;36.55;41.59;;
66589;Laerm;53447;49.272;11.070;2023-07-13T01:56:20;39.71;36.87;41.59;;
66589;Laerm;53447;49.272;11.070;2023-07-13T01:58:46;39.56;36.38;42.53;;
66589;Laerm;53447;49.272;11.070;2023-07-13T02:01:11;40.08;36.55;46.36;;
66589;Laerm;53447;49.272;11.070;2023-07-13T02:03:36;41.01;36.55;44.70;;
66589;Laerm;53447;49.272;11.070;2023-07-13T02:06:02;40.33;36.87;43.57;;
66589;Laerm;53447;49.272;11.070;2023-07-13T02:08:28;40.08;36.87;42.61;;
66589;Laerm;53447;49.272;11.070;2023-07-13T02:10:53;40.46;36.55;43.15;;
66589;Laerm;53447;49.272;11.070;2023-07-13T02:13:18;39.72;36.87;42.31;;
66589;Laerm;53447;49.272;11.070;2023-07-13T02:15:43;41.27;37.17;43.90;;
66589;Laerm;53447;49.272;11.070;2023-07-13T02:18:08;40.28;37.45;42.40;;
66589;Laerm;53447;49.272;11.070;2023-07-13T02:20:34;40.62;37.45;55.97;;
66589;Laerm;53447;49.272;11.070;2023-07-13T02:22:59;40.01;37.17;42.22;;
66589;Laerm;53447;49.272;11.070;2023-07-13T02:25:24;40.05;36.38;42.08;;
66589;Laerm;53447;49.272;11.070;2023-07-13T02:27:51;40.37;37.45;43.08;;
66589;Laerm;53447;49.272;11.070;2023-07-13T02:30:17;40.08;36.02;42.22;;
66589;Laerm;53447;49.272;11.070;2023-07-13T02:32:42;40.06;36.71;41.89;;
66589;Laerm;53447;49.272;11.070;2023-07-13T02:35:08;40.41;36.87;42.31;;
66589;Laerm;53447;49.272;11.070;2023-07-13T02:37:34;40.23;37.02;41.99;;
66589;Laerm;53447;49.272;11.070;2023-07-13T02:39:59;40.38;37.31;42.69;;
66589;Laerm;53447;49.272;11.070;2023-07-13T02:42:24;40.90;37.96;45.34;;
66589;Laerm;53447;49.272;11.070;2023-07-13T02:44:49;42.00;38.39;52.28;;
66589;Laerm;53447;49.272;11.070;2023-07-13T02:47:15;41.74;38.42;55.49;;
66589;Laerm;53447;49.272;11.070;2023-07-13T02:49:41;41.77;38.08;58.42;;
66589;Laerm;53447;49.272;11.070;2023-07-13T02:52:06;40.87;37.58;45.98;;
66589;Laerm;53447;49.272;11.070;2023-07-13T02:54:31;40.83;37.58;50.84;;
66589;Laerm;53447;49.272;11.070;2023-07-13T02:56:57;40.55;37.58;43.70;;
66589;Laerm;53447;49.272;11.070;2023-07-13T02:59:22;40.45;36.55;43.61;;
66589;Laerm;53447;49.272;11.070;2023-07-13T03:01:47;41.83;37.71;59.71;;
66589;Laerm;53447;49.272;11.070;2023-07-13T03:04:12;51.96;38.53;66.99;;
66589;Laerm;53447;49.272;11.070;2023-07-13T03:06:37;53.31;39.03;67.73;;
66589;Laerm;53447;49.272;11.070;2023-07-13T03:09:03;50.76;38.83;68.35;;
66589;Laerm;53447;49.272;11.070;2023-07-13T03:11:29;51.39;38.42;66.59;;
66589;Laerm;53447;49.272;11.070;2023-07-13T03:13:54;51.82;38.31;62.98;;
66589;Laerm;53447;49.272;11.070;2023-07-13T03:16:20;52.00;38.63;62.29;;
66589;Laerm;53447;49.272;11.070;2023-07-13T03:18:45;48.45;38.20;64.41;;
66589;Laerm;53447;49.272;11.070;2023-07-13T03:21:11;54.51;38.20;67.67;;
66589;Laerm;53447;49.272;11.070;2023-07-13T03:23:36;55.76;38.73;68.17;;
66589;Laerm;53447;49.272;11.070;2023-07-13T03:26:06;54.54;39.56;67.33;;
66589;Laerm;53447;49.272;11.070;2023-07-13T03:28:32;55.00;40.11;67.18;;
66589;Laerm;53447;49.272;11.070;2023-07-13T03:31:05;53.73;38.93;67.75;;
66589;Laerm;53447;49.272;11.070;2023-07-13T03:33:31;54.55;39.56;69.64;;
66589;Laerm;53447;49.272;11.070;2023-07-13T03:35:56;53.30;39.64;67.90;;
66589;Laerm;53447;49.272;11.070;2023-07-13T03:38:22;51.66;38.83;68.15;;
66589;Laerm;53447;49.272;11.070;2023-07-13T03:40:47;53.46;38.83;69.72;;
66589;Laerm;53447;49.272;11.070;2023-07-13T03:43:12;55.24;38.31;69.68;;
66589;Laerm;53447;49.272;11.070;2023-07-13T03:45:38;55.44;38.83;70.26;;
66589;Laerm;53447;49.272;11.070;2023-07-13T03:48:03;52.45;38.31;68.62;;
66589;Laerm;53447;49.272;11.070;2023-07-13T03:50:29;53.86;39.21;70.34;;
66589;Laerm;53447;49.272;11.070;2023-07-13T03:52:54;55.43;38.83;69.06;;
66589;Laerm;53447;49.272;11.070;2023-07-13T03:55:21;53.19;38.93;67.16;;
66589;Laerm;53447;49.272;11.070;2023-07-13T03:57:46;53.33;39.12;70.27;;
66589;Laerm;53447;49.272;11.070;2023-07-13T04:00:11;55.55;39.96;72.73;;
66589;Laerm;53447;49.272;11.070;2023-07-13T04:02:37;51.34;40.53;68.64;;
66589;Laerm;53447;49.272;11.070;2023-07-13T04:05:02;51.24;38.73;66.39;;
66589;Laerm;53447;49.272;11.070;2023-07-13T04:07:27;50.62;38.83;68.79;;
66589;Laerm;53447;49.272;11.070;2023-07-13T04:09:53;47.24;38.93;64.53;;
66589;Laerm;53447;49.272;11.070;2023-07-13T04:12:18;49.91;38.73;63.39;;
66589;Laerm;53447;49.272;11.070;2023-07-13T04:14:43;52.00;39.48;66.44;;
66589;Laerm;53447;49.272;11.070;2023-07-13T04:17:08;51.66;37.17;65.09;;
66589;Laerm;53447;49.272;11.070;2023-07-13T04:19:34;55.48;39.12;69.38;;
66589;Laerm;53447;49.272;11.070;2023-07-13T04:21:59;56.07;38.83;75.04;;
66589;Laerm;53447;49.272;11.070;2023-07-13T04:24:24;49.11;38.83;66.99;;
66589;Laerm;53447;49.272;11.070;2023-07-13T04:26:49;50.80;39.39;67.13;;
66589;Laerm;53447;49.272;11.070;2023-07-13T04:29:15;50.59;39.30;66.91;;
66589;Laerm;53447;49.272;11.070;2023-07-13T04:31:40;45.64;38.42;65.50;;
66589;Laerm;53447;49.272;11.070;2023-07-13T04:34:05;42.77;39.21;58.12;;
66589;Laerm;53447;49.272;11.070;2023-07-13T04:36:30;49.01;39.12;63.55;;
66589;Laerm;53447;49.272;11.070;2023-07-13T04:38:56;52.39;38.53;65.30;;
66589;Laerm;53447;49.272;11.070;2023-07-13T04:41:21;51.72;39.48;66.79;;
66589;Laerm;53447;49.272;11.070;2023-07-13T04:43:47;54.16;39.56;66.23;;
66589;Laerm;53447;49.272;11.070;2023-07-13T04:46:13;50.54;39.56;66.55;;
66589;Laerm;53447;49.272;11.070;2023-07-13T04:48:38;52.62;39.72;68.68;;
66589;Laerm;53447;49.272;11.070;2023-07-13T04:51:04;50.67;39.21;67.44;;
66589;Laerm;53447;49.272;11.070;2023-07-13T04:53:30;46.12;38.83;64.33;;
66589;Laerm;53447;49.272;11.070;2023-07-13T04:55:55;49.39;39.39;69.12;;
66589;Laerm;53447;49.272;11.070;2023-07-13T04:58:21;48.82;39.39;65.16;;
66589;Laerm;53447;49.272;11.070;2023-07-13T05:00:46;47.95;37.84;64.73;;
66589;Laerm;53447;49.272;11.070;2023-07-13T05:03:12;51.86;39.12;69.71;;
66589;Laerm;53447;49.272;11.070;2023-07-13T05:05:37;45.48;39.96;61.17;;
66589;Laerm;53447;49.272;11.070;2023-07-13T05:08:02;52.46;38.63;67.51;;
66589;Laerm;53447;49.272;11.070;2023-07-13T05:10:28;45.26;39.64;62.36;;
66589;Laerm;53447;49.272;11.070;2023-07-13T05:12:53;51.42;39.56;68.74;;
66589;Laerm;53447;49.272;11.070;2023-07-13T05:15:20;54.40;40.25;71.70;;
66589;Laerm;53447;49.272;11.070;2023-07-13T05:17:46;52.73;40.39;69.44;;
66589;Laerm;53447;49.272;11.070;2023-07-13T05:20:12;48.71;39.48;67.86;;
66589;Laerm;53447;49.272;11.070;2023-07-13T05:22:37;53.08;38.53;71.51;;
66589;Laerm;53447;49.272;11.070;2023-07-13T05:25:06;51.98;39.39;65.92;;
66589;Laerm;53447;49.272;11.070;2023-07-13T05:27:31;53.45;39.64;70.16;;
66589;Laerm;53447;49.272;11.070;2023-07-13T05:29:57;48.25;39.39;66.11;;
66589;Laerm;53447;49.272;11.070;2023-07-13T05:32:22;49.90;39.48;66.56;;
66589;Laerm;53447;49.272;11.070;2023-07-13T05:34:47;49.54;39.64;64.98;;
66589;Laerm;53447;49.272;11.070;2023-07-13T05:37:13;53.84;38.53;68.28;;
66589;Laerm;53447;49.272;11.070;2023-07-13T05:39:38;52.19;37.73;66.38;;
66589;Laerm;53447;49.272;11.070;2023-07-13T05:42:03;47.58;38.31;63.96;;
66589;Laerm;53447;49.272;11.070;2023-07-13T05:44:29;45.55;39.30;62.04;;
66589;Laerm;53447;49.272;11.070;2023-07-13T05:46:54;53.98;39.12;68.54;;
66589;Laerm;53447;49.272;11.070;2023-07-13T05:49:21;51.21;39.80;66.94;;
66589;Laerm;53447;49.272;11.070;2023-07-13T05:51:46;52.41;39.12;68.10;;
66589;Laerm;53447;49.272;11.070;2023-07-13T05:54:12;52.56;39.21;70.49;;
66589;Laerm;53447;49.272;11.070;2023-07-13T05:56:37;51.90;38.93;66.30;;
66589;Laerm;53447;49.272;11.070;2023-07-13T05:59:02;56.32;39.39;71.64;;
66589;Laerm;53447;49.272;11.070;2023-07-13T06:01:29;53.12;37.02;68.19;;
66589;Laerm;53447;49.272;11.070;2023-07-13T06:03:54;53.12;38.73;69.61;;
66589;Laerm;53447;49.272;11.070;2023-07-13T06:06:19;50.87;38.20;69.11;;
66589;Laerm;53447;49.272;11.070;2023-07-13T06:08:45;51.31;37.17;67.35;;
66589;Laerm;53447;49.272;11.070;2023-07-13T06:11:17;56.01;38.08;72.78;;
66589;Laerm;53447;49.272;11.070;2023-07-13T06:13:43;53.59;37.31;72.60;;
66589;Laerm;53447;49.272;11.070;2023-07-13T06:16:08;50.52;35.41;64.89;;
66589;Laerm;53447;49.272;11.070;2023-07-13T06:18:34;50.35;39.72;65.82;;
66589;Laerm;53447;49.272;11.070;2023-07-13T06:21:00;51.71;38.93;66.71;;
66589;Laerm;53447;49.272;11.070;2023-07-13T06:23:26;52.05;38.93;66.66;;
66589;Laerm;53447;49.272;11.070;2023-07-13T06:25:51;48.39;38.83;71.33;;
66589;Laerm;53447;49.272;11.070;2023-07-13T06:28:16;49.96;37.84;66.66;;
66589;Laerm;53447;49.272;11.070;2023-07-13T06:30:41;52.15;38.31;72.59;;
66589;Laerm;53447;49.272;11.070;2023-07-13T06:33:07;51.01;38.31;68.13;;
66589;Laerm;53447;49.272;11.070;2023-07-13T06:35:32;55.49;40.59;71.59;;
66589;Laerm;53447;49.272;11.070;2023-07-13T06:37:57;52.34;38.93;64.99;;
66589;Laerm;53447;49.272;11.070;2023-07-13T06:40:22;51.12;37.17;65.93;;
66589;Laerm;53447;49.272;11.070;2023-07-13T06:42:48;50.57;37.58;64.25;;
66589;Laerm;53447;49.272;11.070;2023-07-13T06:45:13;51.57;37.58;65.74;;
66589;Laerm;53447;49.272;11.070;2023-07-13T06:47:38;53.99;38.42;69.32;;
66589;Laerm;53447;49.272;11.070;2023-07-13T06:50:03;51.62;38.83;67.70;;
66589;Laerm;53447;49.272;11.070;2023-07-13T06:52:29;49.95;38.20;65.15;;
66589;Laerm;53447;49.272;11.070;2023-07-13T06:54:54;51.00;38.83;61.19;;
66589;Laerm;53447;49.272;11.070;2023-07-13T06:57:19;62.73;38.83;79.74;;
66589;Laerm;53447;49.272;11.070;2023-07-13T06:59:44;53.25;36.38;69.70;;
66589;Laerm;53447;49.272;11.070;2023-07-13T07:02:10;50.89;38.63;66.25;;
66589;Laerm;53447;49.272;11.070;2023-07-13T07:04:35;63.02;39.39;80.06;;
66589;Laerm;53447;49.272;11.070;2023-07-13T07:07:00;52.84;39.56;69.22;;
66589;Laerm;53447;49.272;11.070;2023-07-13T07:09:26;54.80;39.88;67.97;;
66589;Laerm;53447;49.272;11.070;2023-07-13T07:11:51;53.12;39.12;71.43;;
66589;Laerm;53447;49.272;11.070;2023-07-13T07:14:16;50.49;37.71;64.61;;
66589;Laerm;53447;49.272;11.070;2023-07-13T07:16:42;52.96;38.63;66.84;;
66589;Laerm;53447;49.272;11.070;2023-07-13T07:19:07;52.82;38.42;65.94;;
66589;Laerm;53447;49.272;11.070;2023-07-13T07:21:33;52.41;39.39;65.47;;
66589;Laerm;53447;49.272;11.070;2023-07-13T07:23:58;49.59;38.31;63.17;;
66589;Laerm;53447;49.272;11.070;2023-07-13T07:26:25;48.52;38.42;62.49;;
66589;Laerm;53447;49.272;11.070;2023-07-13T07:28:50;48.14;37.84;63.57;;
66589;Laerm;53447;49.272;11.070;2023-07-13T07:31:15;47.11;38.20;65.42;;
66589;Laerm;53447;49.272;11.070;2023-07-13T07:33:40;52.59;38.42;66.04;;
66589;Laerm;53447;49.272;11.070;2023-07-13T07:36:05;50.68;38.73;63.83;;
66589;Laerm;53447;49.272;11.070;2023-07-13T07:38:31;53.04;38.73;70.98;;
66589;Laerm;53447;49.272;11.070;2023-07-13T07:40:56;51.21;39.12;68.38;;
66589;Laerm;53447;49.272;11.070;2023-07-13T07:43:21;52.87;38.53;70.26;;
66589;Laerm;53447;49.272;11.070;2023-07-13T07:45:47;48.44;39.39;64.43;;
66589;Laerm;53447;49.272;11.070;2023-07-13T07:48:12;45.31;39.12;61.60;;
66589;Laerm;53447;49.272;11.070;2023-07-13T07:50:37;48.52;38.31;64.93;;
66589;Laerm;53447;49.272;11.070;2023-07-13T07:53:03;50.47;38.42;64.43;;
66589;Laerm;53447;49.272;11.070;2023-07-13T07:55:32;50.30;38.20;68.10;;
66589;Laerm;53447;49.272;11.070;2023-07-13T07:57:57;53.14;38.53;71.66;;
66589;Laerm;53447;49.272;11.070;2023-07-13T08:00:22;44.88;39.30;60.39;;
66589;Laerm;53447;49.272;11.070;2023-07-13T08:02:48;53.53;42.65;66.36;;
66589;Laerm;53447;49.272;11.070;2023-07-13T08:05:13;48.82;41.24;61.93;;
66589;Laerm;53447;49.272;11.070;2023-07-13T08:07:39;49.23;39.12;60.16;;
66589;Laerm;53447;49.272;11.070;2023-07-13T08:10:05;45.31;39.80;58.30;;
66589;Laerm;53447;49.272;11.070;2023-07-13T08:12:33;55.49;39.12;69.98;;
66589;Laerm;53447;49.272;11.070;2023-07-13T08:14:59;51.51;39.64;69.60;;
66589;Laerm;53447;49.272;11.070;2023-07-13T08:17:25;50.72;40.11;68.37;;
66589;Laerm;53447;49.272;11.070;2023-07-13T08:19:50;46.43;39.56;61.53;;
66589;Laerm;53447;49.272;11.070;2023-07-13T08:22:16;50.49;40.25;63.23;;
66589;Laerm;53447;49.272;11.070;2023-07-13T08:24:41;53.54;38.49;65.59;;
66589;Laerm;53447;49.272;11.070;2023-07-13T08:27:12;48.02;39.56;61.84;;
66589;Laerm;53447;49.272;11.070;2023-07-13T08:29:38;46.29;36.87;62.95;;
66589;Laerm;53447;49.272;11.070;2023-07-13T08:32:04;52.08;38.53;64.78;;
66589;Laerm;53447;49.272;11.070;2023-07-13T08:34:30;50.26;38.93;63.75;;
66589;Laerm;53447;49.272;11.070;2023-07-13T08:36:55;49.75;38.73;59.43;;
66589;Laerm;53447;49.272;11.070;2023-07-13T08:39:20;48.34;38.08;65.40;;
66589;Laerm;53447;49.272;11.070;2023-07-13T08:41:46;50.74;38.31;69.80;;
66589;Laerm;53447;49.272;11.070;2023-07-13T08:44:27;51.34;39.72;65.17;;
66589;Laerm;53447;49.272;11.070;2023-07-13T08:46:55;51.07;38.93;68.31;;
66589;Laerm;53447;49.272;11.070;2023-07-13T08:49:23;51.33;39.72;66.40;;
66589;Laerm;53447;49.272;11.070;2023-07-13T08:52:04;48.39;38.20;65.72;;
66589;Laerm;53447;49.272;11.070;2023-07-13T08:54:34;56.06;39.03;75.15;;
66589;Laerm;53447;49.272;11.070;2023-07-13T08:57:04;59.45;39.72;73.51;;
66589;Laerm;53447;49.272;11.070;2023-07-13T08:59:34;55.09;39.64;69.09;;
66589;Laerm;53447;49.272;11.070;2023-07-13T09:04:39;52.79;38.63;66.97;;
66589;Laerm;53447;49.272;11.070;2023-07-13T09:09:41;53.69;39.13;66.60;;
66589;Laerm;53447;49.272;11.070;2023-07-13T09:12:17;51.10;37.96;63.94;;
66589;Laerm;53447;49.272;11.070;2023-07-13T09:14:50;52.18;37.31;65.51;;
66589;Laerm;53447;49.272;11.070;2023-07-13T09:17:31;47.85;37.02;62.04;;
66589;Laerm;53447;49.272;11.070;2023-07-13T09:20:00;53.81;39.64;72.27;;
66589;Laerm;53447;49.272;11.070;2023-07-13T09:22:26;51.37;38.63;66.37;;
66589;Laerm;53447;49.272;11.070;2023-07-13T09:24:55;48.82;38.83;63.25;;
66589;Laerm;53447;49.272;11.070;2023-07-13T09:27:23;49.38;39.12;63.75;;
66589;Laerm;53447;49.272;11.070;2023-07-13T09:30:16;50.19;38.93;69.77;;
66589;Laerm;53447;49.272;11.070;2023-07-13T09:32:39;47.99;38.83;66.44;;
66589;Laerm;53447;49.272;11.070;2023-07-13T09:35:11;52.10;38.20;70.65;;
66589;Laerm;53447;49.272;11.070;2023-07-13T09:37:37;47.65;38.31;62.85;;
66589;Laerm;53447;49.272;11.070;2023-07-13T09:40:02;50.80;38.42;65.38;;
66589;Laerm;53447;49.272;11.070;2023-07-13T09:42:30;51.61;39.30;69.29;;
66589;Laerm;53447;49.272;11.070;2023-07-13T09:44:58;55.77;38.53;82.62;;
66589;Laerm;53447;49.272;11.070;2023-07-13T09:47:31;50.97;38.53;64.59;;
66589;Laerm;53447;49.272;11.070;2023-07-13T09:50:05;49.47;38.53;65.01;;
66589;Laerm;53447;49.272;11.070;2023-07-13T09:52:44;50.53;38.93;65.13;;
66589;Laerm;53447;49.272;11.070;2023-07-13T09:57:55;52.94;38.63;69.77;;
66589;Laerm;53447;49.272;11.070;2023-07-13T10:00:22;54.44;40.11;70.26;;
66589;Laerm;53447;49.272;11.070;2023-07-13T10:02:49;52.96;40.53;73.67;;
66589;Laerm;53447;49.272;11.070;2023-07-13T10:05:22;50.35;38.93;65.16;;
66589;Laerm;53447;49.272;11.070;2023-07-13T10:07:49;45.81;38.20;62.02;;
66589;Laerm;53447;49.272;11.070;2023-07-13T10:10:19;51.75;37.71;70.40;;
66589;Laerm;53447;49.272;11.070;2023-07-13T10:12:45;46.60;38.31;70.27;;
66589;Laerm;53447;49.272;11.070;2023-07-13T10:15:14;51.15;38.93;71.04;;
66589;Laerm;53447;49.272;11.070;2023-07-13T10:17:40;49.51;38.08;68.33;;
66589;Laerm;53447;49.272;11.070;2023-07-13T10:20:06;49.74;37.24;71.86;;
66589;Laerm;53447;49.272;11.070;2023-07-13T10:25:03;49.58;38.20;65.25;;
66589;Laerm;53447;49.272;11.070;2023-07-13T10:27:34;56.17;38.53;69.37;;
66589;Laerm;53447;49.272;11.070;2023-07-13T10:30:11;56.33;39.21;72.92;;
66589;Laerm;53447;49.272;11.070;2023-07-13T10:32:37;51.28;38.08;66.60;;
66589;Laerm;53447;49.272;11.070;2023-07-13T10:35:02;47.39;38.63;63.98;;
66589;Laerm;53447;49.272;11.070;2023-07-13T10:37:35;45.32;38.20;63.47;;
66589;Laerm;53447;49.272;11.070;2023-07-13T10:40:04;41.19;36.87;56.11;;
66589;Laerm;53447;49.272;11.070;2023-07-13T10:42:32;44.90;38.20;53.67;;
66589;Laerm;53447;49.272;11.070;2023-07-13T10:44:59;47.17;38.93;60.74;;
66589;Laerm;53447;49.272;11.070;2023-07-13T10:47:24;53.10;39.12;70.51;;
66589;Laerm;53447;49.272;11.070;2023-07-13T10:49:52;47.66;37.96;64.21;;
66589;Laerm;53447;49.272;11.070;2023-07-13T10:55:03;48.19;37.31;63.18;;
66589;Laerm;53447;49.272;11.070;2023-07-13T10:57:39;51.21;36.38;69.54;;
66589;Laerm;53447;49.272;11.070;2023-07-13T11:00:14;52.77;38.08;70.19;;
66589;Laerm;53447;49.272;11.070;2023-07-13T11:02:39;52.31;38.73;69.67;;
66589;Laerm;53447;49.272;11.070;2023-07-13T11:05:38;43.07;37.02;57.92;;
66589;Laerm;53447;49.272;11.070;2023-07-13T11:13:35;48.62;39.12;65.36;;
66589;Laerm;53447;49.272;11.070;2023-07-13T11:15:56;51.58;39.48;66.23;;
66589;Laerm;53447;49.272;11.070;2023-07-13T11:18:23;47.93;39.39;64.29;;
66589;Laerm;53447;49.272;11.070;2023-07-13T11:20:49;50.51;38.31;65.40;;
66589;Laerm;53447;49.272;11.070;2023-07-13T11:25:43;47.17;39.80;66.32;;
66589;Laerm;53447;49.272;11.070;2023-07-13T11:30:38;47.42;37.02;61.95;;
66589;Laerm;53447;49.272;11.070;2023-07-13T11:35:38;43.96;38.83;60.13;;
66589;Laerm;53447;49.272;11.070;2023-07-13T11:41:05;44.97;38.08;65.86;;
66589;Laerm;53447;49.272;11.070;2023-07-13T11:43:31;49.78;38.73;68.06;;
66589;Laerm;53447;49.272;11.070;2023-07-13T11:45:58;52.77;39.38;67.86;;
66589;Laerm;53447;49.272;11.070;2023-07-13T11:50:49;55.53;38.73;72.86;;
66589;Laerm;53447;49.272;11.070;2023-07-13T11:53:16;54.26;38.63;72.50;;
66589;Laerm;53447;49.272;11.070;2023-07-13T11:55:42;55.65;38.63;67.60;;
66589;Laerm;53447;49.272;11.070;2023-07-13T11:58:07;53.22;38.93;66.35;;
66589;Laerm;53447;49.272;11.070;2023-07-13T12:00:34;51.97;38.73;66.35;;
66589;Laerm;53447;49.272;11.070;2023-07-13T12:03:00;50.17;39.03;66.20;;
66589;Laerm;53447;49.272;11.070;2023-07-13T12:05:27;53.67;38.73;67.14;;
66589;Laerm;53447;49.272;11.070;2023-07-13T12:07:53;48.06;38.42;63.27;;
66589;Laerm;53447;49.272;11.070;2023-07-13T12:10:21;52.53;38.63;69.47;;
66589;Laerm;53447;49.272;11.070;2023-07-13T12:12:57;48.13;38.53;65.17;;
66589;Laerm;53447;49.272;11.070;2023-07-13T12:15:23;51.85;39.03;65.96;;
66589;Laerm;53447;49.272;11.070;2023-07-13T12:17:49;46.30;38.31;62.31;;
66589;Laerm;53447;49.272;11.070;2023-07-13T12:20:25;50.06;38.42;64.65;;
66589;Laerm;53447;49.272;11.070;2023-07-13T12:22:51;47.27;37.96;62.48;;
66589;Laerm;53447;49.272;11.070;2023-07-13T12:25:17;47.31;37.84;64.35;;
66589;Laerm;53447;49.272;11.070;2023-07-13T12:27:46;52.73;38.20;65.67;;
66589;Laerm;53447;49.272;11.070;2023-07-13T12:35:53;51.92;38.63;73.61;;
66589;Laerm;53447;49.272;11.070;2023-07-13T12:38:18;52.61;37.71;68.29;;
66589;Laerm;53447;49.272;11.070;2023-07-13T12:40:48;48.02;38.53;64.16;;
66589;Laerm;53447;49.272;11.070;2023-07-13T12:43:14;45.12;37.84;58.86;;
66589;Laerm;53447;49.272;11.070;2023-07-13T12:45:54;57.54;38.83;75.59;;
66589;Laerm;53447;49.272;11.070;2023-07-13T12:48:19;45.65;38.63;61.18;;
66589;Laerm;53447;49.272;11.070;2023-07-13T12:50:48;51.95;39.80;66.18;;
66589;Laerm;53447;49.272;11.070;2023-07-13T12:53:16;49.37;38.83;67.26;;
66589;Laerm;53447;49.272;11.070;2023-07-13T12:55:52;51.85;38.93;65.96;;
66589;Laerm;53447;49.272;11.070;2023-07-13T12:58:26;52.69;38.63;68.15;;
66589;Laerm;53447;49.272;11.070;2023-07-13T13:00:53;49.20;38.83;64.77;;
66589;Laerm;53447;49.272;11.070;2023-07-13T13:06:19;50.97;38.53;67.81;;
66589;Laerm;53447;49.272;11.070;2023-07-13T13:08:41;49.00;39.03;68.53;;
66589;Laerm;53447;49.272;11.070;2023-07-13T13:11:08;52.03;39.29;66.90;;
66589;Laerm;53447;49.272;11.070;2023-07-13T13:13:34;49.57;37.84;66.92;;
66589;Laerm;53447;49.272;11.070;2023-07-13T13:16:08;52.71;38.31;69.59;;
66589;Laerm;53447;49.272;11.070;2023-07-13T13:18:34;48.93;37.84;62.99;;
66589;Laerm;53447;49.272;11.070;2023-07-13T13:21:01;48.73;38.93;61.39;;
66589;Laerm;53447;49.272;11.070;2023-07-13T13:23:26;45.61;38.31;64.75;;
66589;Laerm;53447;49.272;11.070;2023-07-13T13:25:51;52.70;38.73;76.12;;
66589;Laerm;53447;49.272;11.070;2023-07-13T13:28:17;41.68;38.42;55.35;;
66589;Laerm;53447;49.272;11.070;2023-07-13T13:30:43;41.99;38.83;55.30;;
66589;Laerm;53447;49.272;11.070;2023-07-13T13:33:10;43.74;38.73;61.06;;
66589;Laerm;53447;49.272;11.070;2023-07-13T13:35:37;46.57;39.48;57.25;;
66589;Laerm;53447;49.272;11.070;2023-07-13T13:38:04;45.34;38.73;64.93;;
66589;Laerm;53447;49.272;11.070;2023-07-13T13:40:34;53.20;39.39;68.83;;
66589;Laerm;53447;49.272;11.070;2023-07-13T13:42:59;52.13;38.08;71.39;;
66589;Laerm;53447;49.272;11.070;2023-07-13T13:45:24;49.65;39.30;64.20;;
66589;Laerm;53447;49.272;11.070;2023-07-13T13:47:49;50.53;37.84;67.75;;
66589;Laerm;53447;49.272;11.070;2023-07-13T13:50:20;51.66;38.42;67.37;;
66589;Laerm;53447;49.272;11.070;2023-07-13T13:52:46;44.40;38.83;56.90;;
66589;Laerm;53447;49.272;11.070;2023-07-13T13:55:21;50.58;38.73;71.10;;
66589;Laerm;53447;49.272;11.070;2023-07-13T13:57:48;50.78;37.71;65.31;;
66589;Laerm;53447;49.272;11.070;2023-07-13T14:00:15;47.83;38.93;63.55;;
66589;Laerm;53447;49.272;11.070;2023-07-13T14:02:42;47.51;39.48;62.50;;
66589;Laerm;53447;49.272;11.070;2023-07-13T14:05:12;53.80;39.13;70.27;;
66589;Laerm;53447;49.272;11.070;2023-07-13T14:07:37;51.58;38.42;68.41;;
66589;Laerm;53447;49.272;11.070;2023-07-13T14:10:08;49.08;38.93;64.03;;
66589;Laerm;53447;49.272;11.070;2023-07-13T14:12:35;45.38;39.12;63.18;;